createdAt,value
2023-04-27T00:00:11.075Z,70.36
2023-04-27T00:01:11.048Z,70.90
2023-04-27T00:02:05.280Z,71.76
2023-04-27T00:02:56.914Z,71.57
2023-04-27T00:03:48.921Z,72.87
2023-04-27T00:04:44.883Z,71.70
2023-04-27T00:05:38.968Z,72.74
2023-04-27T00:06:32.510Z,72.01
2023-04-27T00:07:24.054Z,71.39
2023-04-27T00:08:17.872Z,71.77
2023-04-27T00:09:09.459Z,72.01
2023-04-27T00:10:01.083Z,72.09
2023-04-27T00:10:52.754Z,73.16
2023-04-27T00:11:44.149Z,72.26
2023-04-27T00:12:35.623Z,72.49
2023-04-27T00:13:28.009Z,72.03
2023-04-27T00:14:20.827Z,71.93
2023-04-27T00:15:12.293Z,74.66
2023-04-27T00:16:03.992Z,73.80
2023-04-27T00:16:56.053Z,73.07
2023-04-27T00:17:48.203Z,71.50
2023-04-27T00:18:39.786Z,70.88
2023-04-27T00:19:31.277Z,72.66
2023-04-27T00:20:23.762Z,73.74
2023-04-27T00:21:17.515Z,73.26
2023-04-27T00:22:09.203Z,72.09
2023-04-27T00:23:00.692Z,72.69
2023-04-27T00:23:52.105Z,73.80
2023-04-27T00:24:43.554Z,71.41
2023-04-27T00:25:34.990Z,71.80
2023-04-27T00:26:26.872Z,70.48
2023-04-27T00:27:18.412Z,72.15
2023-04-27T00:28:12.405Z,73.52
2023-04-27T00:29:06.194Z,72.21
2023-04-27T00:29:57.717Z,73.75
2023-04-27T00:30:49.479Z,74.59
2023-04-27T00:31:41.201Z,73.22
2023-04-27T00:32:35.643Z,72.95
2023-04-27T00:33:27.299Z,74.68
2023-04-27T00:34:18.837Z,75.75
2023-04-27T00:35:12.697Z,75.68
2023-04-27T00:36:04.644Z,76.29
2023-04-27T00:36:57.652Z,77.68
2023-04-27T00:37:49.064Z,77.19
2023-04-27T00:38:40.615Z,78.95
2023-04-27T00:39:34.392Z,76.78
2023-04-27T00:40:25.892Z,76.38
2023-04-27T00:41:17.587Z,76.53
2023-04-27T00:42:15.424Z,75.10
2023-04-27T00:43:08.175Z,75.13
2023-04-27T00:43:59.706Z,75.07
2023-04-27T00:44:52.632Z,73.75
2023-04-27T00:45:44.508Z,73.91
2023-04-27T00:46:37.272Z,74.95
2023-04-27T00:47:30.320Z,75.39
2023-04-27T00:48:22.294Z,74.08
2023-04-27T00:49:14.269Z,74.25
2023-04-27T00:50:08.709Z,73.54
2023-04-27T00:51:00.362Z,73.73
2023-04-27T00:51:52.357Z,76.74
2023-04-27T00:52:46.380Z,75.61
2023-04-27T00:53:39.494Z,74.52
2023-04-27T00:54:31.609Z,74.31
2023-04-27T00:55:23.928Z,73.81
2023-04-27T00:56:16.516Z,73.87
2023-04-27T00:57:08.991Z,74.93
2023-04-27T00:58:01.714Z,74.24
2023-04-27T00:58:55.681Z,74.77
2023-04-27T00:59:47.655Z,76.09
2023-04-27T01:00:40.242Z,76.01
2023-04-27T01:01:32.102Z,75.35
2023-04-27T01:02:23.713Z,75.59
2023-04-27T01:03:15.748Z,77.23
2023-04-27T01:04:10.875Z,75.66
2023-04-27T01:05:03.607Z,74.25
2023-04-27T01:05:57.004Z,75.07
2023-04-27T01:06:48.797Z,73.40
2023-04-27T01:07:41.081Z,76.21
2023-04-27T01:08:34.279Z,76.00
2023-04-27T01:09:27.077Z,75.75
2023-04-27T01:10:19.949Z,76.21
2023-04-27T01:11:11.792Z,75.09
2023-04-27T01:12:04.795Z,75.89
2023-04-27T01:12:56.499Z,74.62
2023-04-27T01:13:47.922Z,75.08
2023-04-27T01:14:39.428Z,74.28
2023-04-27T01:15:31.196Z,75.83
2023-04-27T01:16:22.970Z,74.92
2023-04-27T01:17:14.445Z,73.70
2023-04-27T01:18:09.254Z,74.09
2023-04-27T01:19:04.118Z,73.86
2023-04-27T01:19:56.678Z,74.37
2023-04-27T01:20:48.395Z,74.67
2023-04-27T01:21:40.164Z,75.64
2023-04-27T01:22:32.009Z,75.73
2023-04-27T01:23:23.847Z,75.45
2023-04-27T01:24:15.289Z,76.58
2023-04-27T01:25:08.102Z,76.65
2023-04-27T01:25:59.778Z,75.51
2023-04-27T01:26:53.778Z,75.36
2023-04-27T01:27:45.589Z,75.36
2023-04-27T01:28:36.963Z,76.16
2023-04-27T01:29:28.453Z,75.11
2023-04-27T01:30:22.750Z,76.46
2023-04-27T01:31:16.173Z,76.19
2023-04-27T01:32:14.263Z,76.36
2023-04-27T01:33:06.166Z,76.19
2023-04-27T01:33:59.275Z,75.43
2023-04-27T01:34:53.341Z,75.63
2023-04-27T01:35:44.872Z,75.00
2023-04-27T01:36:36.334Z,76.72
2023-04-27T01:37:27.813Z,76.84
2023-04-27T01:38:19.261Z,75.66
2023-04-27T01:39:12.082Z,75.83
2023-04-27T01:40:06.600Z,75.22
2023-04-27T01:41:02.119Z,74.81
2023-04-27T01:41:53.680Z,75.05
2023-04-27T01:42:45.185Z,75.72
2023-04-27T01:43:39.678Z,76.53
2023-04-27T01:44:33.471Z,75.46
2023-04-27T01:45:25.004Z,76.54
2023-04-27T01:46:17.295Z,79.26
2023-04-27T01:47:08.888Z,76.86
2023-04-27T01:48:00.416Z,76.67
2023-04-27T01:48:51.891Z,77.08
2023-04-27T01:49:43.739Z,77.46
2023-04-27T01:50:35.331Z,76.65
2023-04-27T01:51:27.606Z,76.79
2023-04-27T01:52:19.207Z,77.07
2023-04-27T01:53:10.761Z,77.26
2023-04-27T01:54:02.791Z,77.00
2023-04-27T01:54:55.654Z,76.88
2023-04-27T01:55:47.688Z,76.94
2023-04-27T01:56:39.161Z,76.92
2023-04-27T01:57:31.280Z,77.59
2023-04-27T01:58:23.133Z,77.99
2023-04-27T01:59:16.511Z,78.26
2023-04-27T02:00:08.698Z,77.75
2023-04-27T02:01:12.532Z,77.40
2023-04-27T02:02:04.196Z,77.93
2023-04-27T02:02:57.428Z,77.57
2023-04-27T02:03:49.526Z,78.27
2023-04-27T02:04:45.861Z,78.03
2023-04-27T02:05:37.533Z,78.06
2023-04-27T02:06:29.020Z,79.75
2023-04-27T02:07:20.804Z,80.64
2023-04-27T02:08:12.442Z,82.84
2023-04-27T02:09:04.039Z,81.46
2023-04-27T02:09:55.481Z,80.83
2023-04-27T02:10:46.922Z,80.67
2023-04-27T02:11:38.596Z,81.60
2023-04-27T02:12:30.244Z,81.80
2023-04-27T02:13:24.611Z,81.81
2023-04-27T02:14:16.165Z,79.93
2023-04-27T02:15:10.902Z,80.30
2023-04-27T02:16:05.023Z,79.06
2023-04-27T02:16:56.850Z,79.65
2023-04-27T02:17:48.496Z,78.60
2023-04-27T02:18:40.508Z,79.38
2023-04-27T02:19:34.247Z,79.36
2023-04-27T02:20:25.705Z,79.80
2023-04-27T02:21:18.252Z,81.15
2023-04-27T02:22:10.617Z,78.96
2023-04-27T02:23:02.226Z,78.73
2023-04-27T02:23:56.303Z,78.68
2023-04-27T02:24:48.440Z,79.35
2023-04-27T02:25:43.122Z,78.41
2023-04-27T02:26:34.559Z,78.93
2023-04-27T02:27:28.102Z,80.63
2023-04-27T02:28:19.949Z,81.48
2023-04-27T02:29:11.823Z,81.77
2023-04-27T02:30:13.001Z,81.00
2023-04-27T02:31:05.127Z,81.68
2023-04-27T02:31:57.702Z,80.59
2023-04-27T02:32:49.737Z,81.15
2023-04-27T02:33:41.822Z,80.86
2023-04-27T02:34:36.091Z,81.42
2023-04-27T02:35:27.795Z,80.09
2023-04-27T02:36:22.524Z,80.26
2023-04-27T02:37:13.927Z,80.66
2023-04-27T02:38:06.655Z,80.17
2023-04-27T02:39:01.961Z,79.68
2023-04-27T02:39:54.315Z,78.83
2023-04-27T02:40:48.307Z,79.55
2023-04-27T02:41:42.102Z,79.82
2023-04-27T02:42:33.636Z,80.07
2023-04-27T02:43:30.304Z,80.07
2023-04-27T02:44:21.742Z,80.01
2023-04-27T02:45:13.230Z,79.80
2023-04-27T02:46:04.831Z,80.48
2023-04-27T02:46:58.760Z,80.54
2023-04-27T02:47:51.056Z,79.96
2023-04-27T02:48:43.127Z,80.63
2023-04-27T02:49:36.768Z,80.94
2023-04-27T02:50:29.377Z,80.67
2023-04-27T02:51:21.334Z,81.17
2023-04-27T02:52:12.805Z,80.58
2023-04-27T02:53:04.249Z,80.83
2023-04-27T02:53:56.344Z,81.83
2023-04-27T02:54:50.945Z,82.30
2023-04-27T02:55:50.174Z,82.11
2023-04-27T02:56:41.797Z,82.03
2023-04-27T02:57:33.310Z,82.53
2023-04-27T02:58:26.186Z,82.07
2023-04-27T02:59:17.744Z,82.14
2023-04-27T03:00:10.489Z,81.90
2023-04-27T03:01:04.036Z,81.37
2023-04-27T03:01:55.617Z,81.97
2023-04-27T03:02:47.322Z,82.70
2023-04-27T03:03:39.640Z,83.01
2023-04-27T03:04:32.019Z,82.75
2023-04-27T03:05:26.536Z,82.95
2023-04-27T03:06:18.081Z,82.65
2023-04-27T03:07:09.541Z,82.48
2023-04-27T03:08:01.742Z,82.13
2023-04-27T03:08:53.187Z,81.94
2023-04-27T03:09:45.532Z,82.72
2023-04-27T03:10:36.937Z,83.07
2023-04-27T03:11:28.321Z,82.90
2023-04-27T03:12:19.983Z,83.10
2023-04-27T03:13:14.062Z,82.84
2023-04-27T03:14:06.186Z,83.39
2023-04-27T03:14:59.751Z,84.34
2023-04-27T03:15:51.310Z,83.84
2023-04-27T03:16:45.460Z,83.69
2023-04-27T03:17:39.854Z,82.68
2023-04-27T03:18:31.790Z,82.46
2023-04-27T03:19:23.692Z,81.67
2023-04-27T03:20:15.760Z,83.09
2023-04-27T03:21:12.230Z,83.13
2023-04-27T03:22:03.785Z,82.85
2023-04-27T03:22:55.298Z,82.94
2023-04-27T03:23:46.783Z,83.14
2023-04-27T03:24:38.210Z,82.57
2023-04-27T03:25:29.717Z,82.49
2023-04-27T03:26:21.573Z,82.39
2023-04-27T03:27:14.674Z,83.38
2023-04-27T03:28:07.391Z,82.98
2023-04-27T03:28:59.070Z,84.13
2023-04-27T03:29:57.536Z,83.66
2023-04-27T03:30:49.007Z,82.49
2023-04-27T03:31:40.559Z,83.35
2023-04-27T03:32:32.074Z,83.05
2023-04-27T03:33:28.300Z,83.76
2023-04-27T03:34:21.714Z,82.37
2023-04-27T03:35:15.939Z,82.76
2023-04-27T03:36:11.189Z,82.79
2023-04-27T03:37:06.588Z,83.72
2023-04-27T03:38:01.979Z,83.93
2023-04-27T03:38:55.170Z,83.57
2023-04-27T03:39:46.639Z,83.74
2023-04-27T03:40:38.124Z,84.64
2023-04-27T03:41:29.645Z,83.62
2023-04-27T03:42:25.650Z,84.98
2023-04-27T03:43:18.763Z,83.76
2023-04-27T03:44:11.466Z,84.65
2023-04-27T03:45:02.992Z,84.46
2023-04-27T03:45:54.508Z,84.10
2023-04-27T03:46:46.060Z,84.00
2023-04-27T03:47:37.556Z,84.42
2023-04-27T03:48:29.046Z,83.91
2023-04-27T03:49:20.922Z,84.06
2023-04-27T03:50:14.853Z,84.22
2023-04-27T03:51:06.740Z,85.36
2023-04-27T03:51:59.059Z,84.88
2023-04-27T03:52:50.488Z,84.53
2023-04-27T03:53:41.970Z,85.29
2023-04-27T03:54:33.642Z,85.39
2023-04-27T03:55:25.853Z,85.85
2023-04-27T03:56:19.732Z,84.45
2023-04-27T03:57:12.633Z,85.37
2023-04-27T03:58:04.332Z,85.44
2023-04-27T03:58:56.683Z,84.61
2023-04-27T03:59:57.393Z,84.24
2023-04-27T04:00:50.025Z,83.84
2023-04-27T04:01:41.660Z,84.55
2023-04-27T04:02:33.661Z,83.98
2023-04-27T04:03:25.965Z,84.04
2023-04-27T04:04:17.914Z,84.00
2023-04-27T04:05:09.839Z,84.04
2023-04-27T04:06:03.595Z,83.64
2023-04-27T04:06:55.001Z,82.09
2023-04-27T04:07:47.259Z,82.35
2023-04-27T04:08:39.612Z,82.19
2023-04-27T04:09:31.209Z,82.36
2023-04-27T04:10:23.105Z,82.60
2023-04-27T04:11:15.907Z,82.03
2023-04-27T04:12:07.836Z,82.65
2023-04-27T04:12:59.272Z,82.94
2023-04-27T04:13:51.545Z,82.13
2023-04-27T04:14:43.166Z,82.34
2023-04-27T04:15:34.677Z,82.98
2023-04-27T04:16:26.305Z,82.63
2023-04-27T04:17:18.520Z,83.82
2023-04-27T04:18:11.364Z,83.58
2023-04-27T04:19:04.541Z,83.87
2023-04-27T04:19:58.261Z,84.27
2023-04-27T04:20:49.640Z,84.19
2023-04-27T04:21:41.146Z,84.49
2023-04-27T04:22:33.088Z,84.66
2023-04-27T04:23:25.903Z,84.36
2023-04-27T04:24:17.966Z,84.21
2023-04-27T04:25:09.872Z,83.85
2023-04-27T04:26:02.385Z,84.50
2023-04-27T04:26:58.636Z,83.08
2023-04-27T04:27:50.184Z,82.96
2023-04-27T04:28:42.047Z,83.26
2023-04-27T04:29:33.930Z,83.78
2023-04-27T04:30:26.171Z,83.76
2023-04-27T04:31:18.370Z,84.43
2023-04-27T04:32:09.956Z,84.75
2023-04-27T04:33:02.332Z,82.28
2023-04-27T04:33:53.885Z,84.03
2023-04-27T04:34:53.393Z,83.83
2023-04-27T04:35:46.998Z,83.63
2023-04-27T04:36:38.593Z,82.09
2023-04-27T04:37:30.270Z,83.04
2023-04-27T04:38:23.374Z,83.79
2023-04-27T04:39:17.602Z,82.89
2023-04-27T04:40:12.791Z,83.06
2023-04-27T04:41:04.812Z,82.75
2023-04-27T04:41:58.076Z,83.45
2023-04-27T04:42:54.091Z,83.63
2023-04-27T04:43:45.642Z,83.44
2023-04-27T04:44:38.689Z,83.84
2023-04-27T04:45:30.350Z,84.08
2023-04-27T04:46:24.658Z,83.42
2023-04-27T04:47:16.534Z,83.54
2023-04-27T04:48:08.788Z,83.50
2023-04-27T04:49:02.712Z,83.52
2023-04-27T04:49:54.132Z,83.00
2023-04-27T04:50:46.095Z,83.78
2023-04-27T04:51:42.790Z,82.88
2023-04-27T04:52:34.477Z,83.79
2023-04-27T04:53:26.147Z,84.40
2023-04-27T04:54:20.319Z,83.00
2023-04-27T04:55:12.929Z,84.23
2023-04-27T04:56:17.091Z,82.60
2023-04-27T04:57:10.464Z,83.55
2023-04-27T04:58:02.053Z,83.56
2023-04-27T04:58:53.597Z,84.54
2023-04-27T04:59:45.315Z,83.83
2023-04-27T05:00:36.870Z,85.09
2023-04-27T05:01:28.382Z,83.94
2023-04-27T05:02:20.299Z,85.54
2023-04-27T05:03:12.090Z,82.49
2023-04-27T05:04:03.918Z,82.56
2023-04-27T05:04:58.020Z,83.16
2023-04-27T05:05:49.572Z,83.36
2023-04-27T05:06:41.193Z,83.19
2023-04-27T05:07:35.261Z,82.63
2023-04-27T05:08:26.840Z,83.45
2023-04-27T05:09:18.243Z,83.54
2023-04-27T05:10:10.249Z,82.81
2023-04-27T05:11:01.884Z,83.42
2023-04-27T05:11:53.242Z,84.52
2023-04-27T05:12:44.642Z,83.52
2023-04-27T05:13:36.365Z,83.78
2023-04-27T05:14:27.777Z,83.23
2023-04-27T05:15:19.211Z,83.22
2023-04-27T05:16:10.687Z,83.50
2023-04-27T05:17:02.311Z,83.76
2023-04-27T05:17:54.562Z,83.30
2023-04-27T05:18:46.060Z,83.47
2023-04-27T05:19:37.743Z,80.47
2023-04-27T05:20:29.145Z,81.36
2023-04-27T05:21:22.019Z,82.29
2023-04-27T05:22:13.461Z,82.08
2023-04-27T05:23:05.261Z,83.56
2023-04-27T05:23:56.600Z,81.32
2023-04-27T05:24:48.150Z,81.69
2023-04-27T05:25:42.388Z,82.02
2023-04-27T05:26:34.342Z,82.01
2023-04-27T05:27:26.090Z,81.81
2023-04-27T05:28:17.795Z,80.23
2023-04-27T05:29:09.349Z,80.75
2023-04-27T05:30:00.991Z,81.35
2023-04-27T05:30:55.024Z,80.12
2023-04-27T05:31:46.652Z,81.21
2023-04-27T05:32:40.778Z,81.04
2023-04-27T05:33:32.307Z,81.84
2023-04-27T05:34:23.983Z,81.23
2023-04-27T05:35:15.422Z,81.09
2023-04-27T05:36:07.061Z,81.95
2023-04-27T05:36:59.958Z,79.47
2023-04-27T05:37:51.429Z,80.38
2023-04-27T05:38:43.455Z,81.26
2023-04-27T05:39:37.238Z,80.41
2023-04-27T05:40:28.950Z,81.62
2023-04-27T05:41:20.677Z,81.47
2023-04-27T05:42:12.112Z,82.07
2023-04-27T05:43:05.653Z,81.08
2023-04-27T05:43:57.449Z,80.54
2023-04-27T05:44:48.824Z,80.93
2023-04-27T05:45:41.326Z,80.19
2023-04-27T05:46:35.378Z,80.31
2023-04-27T05:47:30.940Z,79.95
2023-04-27T05:48:22.502Z,81.03
2023-04-27T05:49:14.139Z,80.71
2023-04-27T05:50:06.398Z,79.38
2023-04-27T05:51:01.720Z,79.57
2023-04-27T05:51:53.530Z,79.68
2023-04-27T05:52:45.212Z,80.16
2023-04-27T05:53:36.619Z,78.87
2023-04-27T05:54:28.241Z,79.79
2023-04-27T05:55:22.439Z,82.08
2023-04-27T05:56:14.019Z,80.40
2023-04-27T05:57:06.235Z,79.61
2023-04-27T05:58:06.949Z,80.14
2023-04-27T05:59:02.512Z,80.25
2023-04-27T05:59:54.214Z,78.46
2023-04-27T06:00:45.795Z,80.05
2023-04-27T06:01:38.130Z,78.63
2023-04-27T06:02:30.016Z,81.05
2023-04-27T06:03:21.816Z,77.00
2023-04-27T06:04:15.556Z,77.51
2023-04-27T06:05:08.194Z,78.55
2023-04-27T06:06:02.003Z,79.83
2023-04-27T06:06:53.473Z,79.54
2023-04-27T06:07:44.848Z,77.49
2023-04-27T06:08:39.517Z,80.80
2023-04-27T06:09:31.316Z,79.44
2023-04-27T06:10:22.955Z,80.65
2023-04-27T06:11:16.908Z,78.69
2023-04-27T06:12:09.625Z,79.36
2023-04-27T06:13:01.068Z,80.21
2023-04-27T06:13:52.544Z,79.19
2023-04-27T06:14:43.990Z,78.55
2023-04-27T06:15:35.644Z,78.45
2023-04-27T06:16:27.319Z,80.52
2023-04-27T06:17:23.906Z,79.34
2023-04-27T06:18:15.456Z,77.12
2023-04-27T06:19:07.350Z,79.16
2023-04-27T06:20:01.187Z,77.88
2023-04-27T06:20:52.746Z,77.85
2023-04-27T06:21:44.200Z,77.97
2023-04-27T06:22:39.021Z,79.30
2023-04-27T06:23:30.490Z,78.14
2023-04-27T06:24:22.585Z,77.78
2023-04-27T06:25:14.116Z,79.12
2023-04-27T06:26:05.901Z,76.05
2023-04-27T06:26:57.553Z,76.23
2023-04-27T06:27:49.085Z,78.21
2023-04-27T06:28:40.979Z,77.35
2023-04-27T06:29:32.424Z,77.50
2023-04-27T06:30:25.440Z,75.80
2023-04-27T06:31:17.538Z,73.85
2023-04-27T06:32:09.112Z,74.29
2023-04-27T06:33:03.377Z,76.22
2023-04-27T06:33:54.835Z,76.12
2023-04-27T06:34:47.078Z,75.40
2023-04-27T06:35:38.727Z,75.45
2023-04-27T06:36:33.373Z,74.88
2023-04-27T06:37:27.967Z,79.44
2023-04-27T06:38:19.456Z,74.06
2023-04-27T06:39:12.314Z,73.56
2023-04-27T06:40:04.528Z,74.34
2023-04-27T06:40:56.232Z,76.47
2023-04-27T06:41:47.619Z,75.52
2023-04-27T06:42:43.976Z,77.39
2023-04-27T06:43:35.504Z,76.22
2023-04-27T06:44:26.987Z,77.53
2023-04-27T06:45:20.775Z,78.73
2023-04-27T06:46:12.456Z,80.03
2023-04-27T06:47:04.032Z,75.53
2023-04-27T06:47:56.127Z,77.21
2023-04-27T06:48:47.705Z,78.06
2023-04-27T06:49:39.091Z,75.36
2023-04-27T06:50:30.673Z,74.40
2023-04-27T06:51:22.340Z,71.33
2023-04-27T06:52:13.812Z,73.06
2023-04-27T06:53:05.314Z,72.53
2023-04-27T06:53:57.317Z,72.06
2023-04-27T06:54:49.019Z,75.03
2023-04-27T06:55:43.183Z,72.29
2023-04-27T06:56:36.124Z,76.42
2023-04-27T06:57:28.113Z,74.78
2023-04-27T06:58:19.580Z,71.94
2023-04-27T06:59:11.537Z,75.06
2023-04-27T07:00:05.244Z,72.51
2023-04-27T07:00:56.795Z,74.81
2023-04-27T07:01:51.086Z,74.02
2023-04-27T07:02:43.821Z,77.10
2023-04-27T07:03:36.927Z,70.95
2023-04-27T07:04:38.425Z,73.04
2023-04-27T07:05:29.867Z,71.19
2023-04-27T07:06:22.477Z,70.73
2023-04-27T07:07:14.096Z,75.77
2023-04-27T07:08:08.489Z,73.21
2023-04-27T07:09:00.594Z,73.72
2023-04-27T07:09:52.295Z,77.70
2023-04-27T07:10:43.656Z,72.48
2023-04-27T07:11:35.127Z,72.18
2023-04-27T07:12:26.923Z,70.50
2023-04-27T07:13:18.423Z,71.70
2023-04-27T07:14:09.874Z,74.19
2023-04-27T07:15:03.699Z,71.22
2023-04-27T07:15:58.296Z,70.99
2023-04-27T07:16:49.989Z,73.35
2023-04-27T07:17:41.726Z,71.40
2023-04-27T07:18:33.509Z,69.76
2023-04-27T07:19:24.993Z,71.25
2023-04-27T07:20:17.208Z,69.62
2023-04-27T07:21:08.748Z,70.16
2023-04-27T07:22:00.361Z,69.97
2023-04-27T07:22:53.287Z,71.98
2023-04-27T07:23:46.349Z,70.16
2023-04-27T07:24:37.831Z,68.86
2023-04-27T07:25:29.306Z,68.66
2023-04-27T07:26:21.480Z,69.19
2023-04-27T07:27:13.525Z,69.04
2023-04-27T07:28:04.984Z,71.37
2023-04-27T07:28:56.573Z,71.88
2023-04-27T07:29:48.155Z,70.54
2023-04-27T07:30:40.539Z,68.26
2023-04-27T07:31:33.249Z,67.49
2023-04-27T07:32:25.509Z,70.67
2023-04-27T07:33:17.623Z,68.29
2023-04-27T07:34:11.140Z,66.38
2023-04-27T07:35:03.274Z,65.58
2023-04-27T07:35:55.039Z,70.57
2023-04-27T07:36:46.971Z,70.26
2023-04-27T07:37:38.695Z,66.80
2023-04-27T07:38:32.637Z,69.91
2023-04-27T07:39:24.142Z,66.42
2023-04-27T07:40:16.936Z,69.58
2023-04-27T07:41:09.075Z,68.52
2023-04-27T07:42:00.600Z,66.67
2023-04-27T07:42:52.438Z,70.49
2023-04-27T07:43:43.829Z,68.44
2023-04-27T07:44:39.101Z,68.69
2023-04-27T07:45:33.232Z,71.64
2023-04-27T07:46:26.193Z,64.23
2023-04-27T07:47:18.757Z,68.44
2023-04-27T07:48:10.414Z,71.14
2023-04-27T07:49:02.369Z,63.28
2023-04-27T07:49:54.173Z,63.55
2023-04-27T07:50:45.980Z,64.88
2023-04-27T07:51:37.553Z,66.96
2023-04-27T07:52:29.244Z,62.87
2023-04-27T07:53:23.414Z,63.02
2023-04-27T07:54:14.918Z,62.87
2023-04-27T07:55:06.948Z,65.54
2023-04-27T07:55:58.425Z,63.25
2023-04-27T07:56:50.185Z,62.87
2023-04-27T07:57:41.770Z,61.86
2023-04-27T07:58:33.233Z,63.84
2023-04-27T07:59:24.667Z,63.61
2023-04-27T08:00:17.367Z,63.96
2023-04-27T08:01:08.990Z,63.86
2023-04-27T08:02:17.671Z,65.85
2023-04-27T08:03:12.256Z,61.35
2023-04-27T08:04:04.396Z,64.63
2023-04-27T08:04:56.634Z,64.05
2023-04-27T08:05:48.842Z,62.12
2023-04-27T08:06:40.948Z,62.69
2023-04-27T08:07:37.137Z,62.62
2023-04-27T08:08:32.688Z,65.79
2023-04-27T08:09:24.408Z,62.24
2023-04-27T08:10:16.039Z,68.00
2023-04-27T08:11:13.024Z,66.25
2023-04-27T08:12:04.788Z,65.26
2023-04-27T08:12:56.227Z,64.13
2023-04-27T08:13:47.922Z,63.80
2023-04-27T08:14:39.322Z,66.28
2023-04-27T08:15:30.833Z,65.83
2023-04-27T08:16:22.365Z,66.81
2023-04-27T08:17:13.840Z,62.49
2023-04-27T08:18:05.402Z,66.30
2023-04-27T08:19:00.593Z,60.92
2023-04-27T08:19:52.377Z,62.79
2023-04-27T08:20:43.859Z,60.49
2023-04-27T08:21:37.330Z,59.79
2023-04-27T08:22:29.053Z,59.30
2023-04-27T08:23:20.614Z,60.57
2023-04-27T08:24:12.710Z,58.43
2023-04-27T08:25:05.344Z,59.78
2023-04-27T08:25:57.416Z,58.88
2023-04-27T08:26:48.831Z,60.73
2023-04-27T08:27:40.986Z,59.69
2023-04-27T08:28:32.665Z,58.96
2023-04-27T08:29:27.980Z,59.52
2023-04-27T08:30:21.255Z,58.15
2023-04-27T08:31:12.852Z,58.29
2023-04-27T08:32:05.080Z,56.18
2023-04-27T08:32:56.758Z,56.20
2023-04-27T08:33:48.252Z,56.17
2023-04-27T08:34:39.652Z,58.01
2023-04-27T08:35:31.203Z,58.10
2023-04-27T08:36:26.364Z,59.75
2023-04-27T08:37:18.628Z,57.08
2023-04-27T08:38:10.085Z,57.94
2023-04-27T08:39:01.470Z,55.16
2023-04-27T08:39:55.291Z,56.91
2023-04-27T08:40:46.983Z,55.72
2023-04-27T08:41:44.061Z,54.53
2023-04-27T08:42:35.822Z,54.26
2023-04-27T08:43:38.913Z,53.54
2023-04-27T08:44:30.818Z,55.29
2023-04-27T08:45:26.246Z,55.24
2023-04-27T08:46:21.736Z,57.46
2023-04-27T08:47:13.194Z,51.64
2023-04-27T08:48:04.854Z,54.63
2023-04-27T08:48:56.999Z,58.21
2023-04-27T08:49:48.706Z,55.46
2023-04-27T08:50:44.223Z,56.05
2023-04-27T08:51:37.826Z,55.41
2023-04-27T08:52:29.292Z,60.48
2023-04-27T08:53:22.161Z,55.00
2023-04-27T08:54:13.668Z,58.10
2023-04-27T08:55:07.318Z,55.26
2023-04-27T08:55:59.604Z,60.17
2023-04-27T08:56:53.162Z,54.84
2023-04-27T08:57:56.054Z,57.78
2023-04-27T08:58:47.438Z,56.25
2023-04-27T08:59:44.564Z,56.71
2023-04-27T09:00:44.662Z,55.66
2023-04-27T09:01:36.158Z,57.83
2023-04-27T09:02:30.626Z,54.07
2023-04-27T09:03:23.822Z,59.07
2023-04-27T09:04:17.784Z,58.09
2023-04-27T09:05:16.362Z,52.97
2023-04-27T09:06:08.886Z,51.35
2023-04-27T09:07:12.297Z,51.30
2023-04-27T09:08:11.038Z,54.80
2023-04-27T09:09:03.885Z,52.34
2023-04-27T09:10:05.180Z,52.74
2023-04-27T09:10:56.631Z,56.48
2023-04-27T09:11:49.652Z,50.84
2023-04-27T09:12:41.241Z,51.97
2023-04-27T09:13:37.292Z,53.08
2023-04-27T09:14:28.797Z,51.56
2023-04-27T09:15:20.197Z,51.69
2023-04-27T09:16:14.925Z,50.99
2023-04-27T09:17:06.757Z,53.57
2023-04-27T09:17:58.553Z,55.14
2023-04-27T09:18:50.206Z,53.75
2023-04-27T09:19:41.844Z,53.42
2023-04-27T09:20:33.303Z,53.88
2023-04-27T09:21:27.780Z,53.18
2023-04-27T09:22:19.412Z,52.57
2023-04-27T09:23:33.604Z,50.31
2023-04-27T09:24:25.278Z,48.61
2023-04-27T09:25:27.949Z,48.39
2023-04-27T09:26:26.008Z,47.38
2023-04-27T09:27:22.003Z,48.50
2023-04-27T09:28:14.507Z,51.61
2023-04-27T09:29:07.137Z,53.11
2023-04-27T09:29:58.637Z,51.32
2023-04-27T09:30:55.918Z,54.04
2023-04-27T09:31:47.497Z,52.73
2023-04-27T09:32:39.102Z,50.81
2023-04-27T09:33:36.231Z,52.03
2023-04-27T09:34:38.021Z,51.82
2023-04-27T09:35:33.275Z,51.68
2023-04-27T09:36:26.226Z,52.71
2023-04-27T09:37:19.250Z,51.47
2023-04-27T09:38:13.734Z,53.66
2023-04-27T09:39:06.744Z,53.62
2023-04-27T09:39:58.301Z,48.89
2023-04-27T09:40:52.908Z,52.57
2023-04-27T09:41:46.260Z,52.35
2023-04-27T09:42:38.898Z,49.49
2023-04-27T09:43:31.372Z,54.39
2023-04-27T09:44:23.325Z,51.46
2023-04-27T09:45:15.985Z,55.70
2023-04-27T09:46:07.903Z,54.71
2023-04-27T09:47:00.872Z,49.29
2023-04-27T09:47:53.056Z,48.51
2023-04-27T09:48:44.496Z,53.40
2023-04-27T09:49:38.819Z,52.82
2023-04-27T09:50:31.035Z,51.09
2023-04-27T09:51:22.518Z,53.86
2023-04-27T09:52:14.003Z,49.20
2023-04-27T09:53:11.622Z,52.90
2023-04-27T09:54:05.193Z,50.30
2023-04-27T09:55:00.724Z,47.61
2023-04-27T09:56:28.367Z,52.33
2023-04-27T09:57:32.162Z,50.54
2023-04-27T09:58:51.663Z,50.14
2023-04-27T09:59:52.041Z,51.29
2023-04-27T10:00:49.812Z,51.26
2023-04-27T10:01:51.256Z,56.95
2023-04-27T10:03:01.224Z,50.78
2023-04-27T10:04:22.674Z,51.84
2023-04-27T10:05:33.026Z,55.71
2023-04-27T10:06:53.268Z,48.60
2023-04-27T10:07:46.164Z,50.45
2023-04-27T10:08:39.109Z,49.33
2023-04-27T10:09:41.262Z,47.67
2023-04-27T10:10:43.520Z,49.17
2023-04-27T10:11:44.426Z,48.05
2023-04-27T10:12:40.758Z,51.17
2023-04-27T10:13:35.311Z,49.84
2023-04-27T10:14:28.971Z,48.44
2023-04-27T10:15:28.588Z,48.91
2023-04-27T10:16:21.321Z,48.54
2023-04-27T10:17:13.487Z,47.88
2023-04-27T10:18:06.052Z,49.92
2023-04-27T10:18:57.553Z,49.42
2023-04-27T10:20:01.228Z,50.18
2023-04-27T10:20:54.885Z,50.48
2023-04-27T10:22:03.713Z,48.65
2023-04-27T10:22:55.693Z,50.24
2023-04-27T10:23:51.675Z,52.17
2023-04-27T10:24:49.771Z,46.60
2023-04-27T10:25:41.785Z,46.45
2023-04-27T10:26:38.026Z,44.74
2023-04-27T10:27:39.430Z,47.82
2023-04-27T10:28:38.457Z,49.54
2023-04-27T10:29:37.548Z,50.60
2023-04-27T10:30:34.391Z,47.32
2023-04-27T10:31:30.112Z,49.28
2023-04-27T10:32:26.352Z,47.04
2023-04-27T10:33:21.773Z,47.50
2023-04-27T10:34:20.543Z,48.31
2023-04-27T10:35:13.056Z,48.46
2023-04-27T10:36:15.878Z,46.26
2023-04-27T10:37:14.007Z,47.23
2023-04-27T10:38:29.883Z,49.07
2023-04-27T10:39:39.650Z,46.32
2023-04-27T10:40:54.350Z,46.93
2023-04-27T10:41:51.025Z,47.09
2023-04-27T10:42:44.490Z,43.53
2023-04-27T10:43:37.421Z,46.48
2023-04-27T10:44:33.281Z,46.79
2023-04-27T10:45:31.850Z,42.70
2023-04-27T10:46:23.572Z,47.67
2023-04-27T10:47:20.037Z,45.86
2023-04-27T10:48:17.598Z,47.93
2023-04-27T10:49:10.420Z,46.95
2023-04-27T10:50:04.157Z,46.55
2023-04-27T10:50:57.275Z,46.28
2023-04-27T10:51:51.310Z,46.28
2023-04-27T10:52:44.342Z,46.40
2023-04-27T10:53:42.776Z,45.82
2023-04-27T10:54:36.210Z,45.24
2023-04-27T10:55:27.778Z,44.78
2023-04-27T10:56:19.350Z,47.90
2023-04-27T10:57:11.343Z,48.62
2023-04-27T10:58:07.989Z,49.96
2023-04-27T10:59:04.087Z,45.59
2023-04-27T10:59:58.766Z,46.20
2023-04-27T11:00:50.459Z,44.78
2023-04-27T11:01:42.375Z,45.73
2023-04-27T11:02:33.960Z,44.62
2023-04-27T11:03:27.070Z,43.73
2023-04-27T11:04:19.457Z,45.43
2023-04-27T11:05:25.346Z,44.46
2023-04-27T11:06:17.396Z,44.19
2023-04-27T11:07:10.228Z,43.80
2023-04-27T11:08:10.336Z,45.13
2023-04-27T11:09:01.881Z,45.97
2023-04-27T11:09:54.622Z,47.11
2023-04-27T11:10:49.974Z,45.71
2023-04-27T11:11:45.877Z,45.54
2023-04-27T11:12:37.310Z,45.81
2023-04-27T11:13:28.918Z,45.59
2023-04-27T11:14:21.400Z,48.72
2023-04-27T11:15:18.369Z,44.05
2023-04-27T11:16:13.467Z,45.81
2023-04-27T11:17:05.204Z,46.25
2023-04-27T11:18:04.945Z,45.29
2023-04-27T11:18:57.947Z,45.51
2023-04-27T11:19:51.347Z,46.13
2023-04-27T11:20:50.929Z,44.81
2023-04-27T11:21:42.590Z,44.90
2023-04-27T11:22:42.912Z,44.39
2023-04-27T11:23:38.640Z,43.50
2023-04-27T11:24:30.256Z,42.18
2023-04-27T11:25:28.451Z,44.23
2023-04-27T11:26:23.942Z,45.51
2023-04-27T11:27:16.626Z,43.42